createdAt,value
2018-10-09T00:01:31.143Z,12.80
2018-10-09T00:04:04.882Z,12.80
2018-10-09T00:06:39.481Z,13.07
2018-10-09T00:09:13.128Z,13.37
2018-10-09T00:11:46.740Z,13.00
2018-10-09T00:14:20.359Z,13.43
2018-10-09T00:16:53.891Z,13.53
2018-10-09T00:19:33.853Z,13.60
2018-10-09T00:22:07.808Z,13.90
2018-10-09T00:24:41.227Z,13.70
2018-10-09T00:27:14.834Z,14.00
2018-10-09T00:29:48.348Z,14.70
2018-10-09T00:32:22.022Z,15.43
2018-10-09T00:35:01.924Z,14.90
2018-10-09T00:37:35.489Z,14.10
2018-10-09T00:40:09.191Z,14.33
2018-10-09T00:42:42.908Z,14.30
2018-10-09T00:45:17.370Z,13.30
2018-10-09T00:47:50.923Z,14.13
2018-10-09T00:50:24.591Z,13.93
2018-10-09T00:52:58.451Z,14.47
2018-10-09T00:55:32.279Z,14.70
2018-10-09T00:58:06.159Z,14.97
2018-10-09T01:00:40.360Z,14.97
2018-10-09T01:03:14.018Z,13.83
2018-10-09T01:05:47.596Z,14.97
2018-10-09T01:08:22.008Z,14.03
2018-10-09T01:10:55.433Z,14.70
2018-10-09T01:13:29.026Z,15.43
2018-10-09T01:16:02.572Z,14.13
2018-10-09T01:18:36.101Z,15.07
2018-10-09T01:21:09.735Z,16.70
2018-10-09T01:23:43.123Z,16.03
2018-10-09T01:26:16.738Z,16.77
2018-10-09T01:28:50.160Z,16.87
2018-10-09T01:31:23.819Z,15.30
2018-10-09T01:33:57.270Z,16.17
2018-10-09T01:36:30.733Z,17.93
2018-10-09T01:39:06.688Z,16.43
2018-10-09T01:41:40.269Z,17.53
2018-10-09T01:44:13.940Z,17.53
2018-10-09T01:46:47.446Z,18.27
2018-10-09T01:49:21.065Z,17.87
2018-10-09T01:51:54.889Z,17.73
2018-10-09T01:54:28.453Z,18.27
2018-10-09T01:57:02.034Z,19.10
2018-10-09T01:59:35.694Z,18.10
2018-10-09T02:02:09.340Z,18.33
2018-10-09T02:04:42.901Z,20.27
2018-10-09T02:07:16.456Z,19.07
2018-10-09T02:09:49.948Z,19.27
2018-10-09T02:12:23.514Z,18.93
2018-10-09T02:14:57.020Z,19.87
2018-10-09T02:17:30.564Z,19.10
2018-10-09T02:20:05.057Z,20.33
2018-10-09T02:22:38.541Z,18.83
2018-10-09T02:25:12.183Z,21.07
2018-10-09T02:27:45.762Z,19.17
2018-10-09T02:30:19.305Z,19.63
2018-10-09T02:32:53.265Z,21.23
2018-10-09T02:35:27.036Z,20.50
2018-10-09T02:38:00.909Z,19.93
2018-10-09T02:40:34.702Z,19.03
2018-10-09T02:43:08.496Z,21.00
2018-10-09T02:45:42.017Z,21.27
2018-10-09T02:48:22.067Z,21.67
2018-10-09T02:50:55.617Z,21.17
2018-10-09T02:53:29.036Z,22.27
2018-10-09T02:56:09.031Z,22.73
2018-10-09T02:58:43.562Z,21.90
2018-10-09T03:01:17.009Z,21.83
2018-10-09T03:03:50.579Z,21.90
2018-10-09T03:06:24.177Z,21.87
2018-10-09T03:08:57.642Z,24.00
2018-10-09T03:11:31.324Z,22.33
2018-10-09T03:14:04.954Z,23.37
2018-10-09T03:16:45.119Z,21.17
2018-10-09T03:19:18.779Z,22.57
2018-10-09T03:21:52.241Z,22.53
2018-10-09T03:24:32.297Z,22.47
2018-10-09T03:27:05.913Z,22.20
2018-10-09T03:29:45.819Z,24.87
2018-10-09T03:32:19.467Z,23.30
2018-10-09T03:34:53.218Z,24.17
2018-10-09T03:37:33.087Z,25.57
2018-10-09T03:40:10.895Z,24.70
2018-10-09T03:42:50.843Z,25.20
2018-10-09T03:45:24.508Z,27.60
2018-10-09T03:47:58.127Z,25.77
2018-10-09T03:50:31.626Z,25.00
2018-10-09T03:53:06.143Z,23.63
2018-10-09T03:55:39.711Z,24.37
2018-10-09T03:58:13.339Z,24.97
2018-10-09T04:00:46.878Z,27.20
2018-10-09T04:03:21.348Z,28.00
2018-10-09T04:05:54.923Z,23.97
2018-10-09T04:08:29.433Z,25.00
2018-10-09T04:11:03.031Z,24.63
2018-10-09T04:13:36.621Z,24.93
2018-10-09T04:16:11.235Z,22.53
2018-10-09T04:18:44.905Z,24.77
2018-10-09T04:21:18.346Z,25.23
2018-10-09T04:23:51.860Z,25.93
2018-10-09T04:26:25.256Z,23.77
2018-10-09T04:28:58.779Z,25.83
2018-10-09T04:31:32.386Z,26.07
2018-10-09T04:34:12.388Z,26.83
2018-10-09T04:36:45.861Z,25.67
2018-10-09T04:39:20.372Z,25.10
2018-10-09T04:41:54.507Z,26.33
2018-10-09T04:44:28.956Z,24.90
2018-10-09T04:47:02.548Z,27.43
2018-10-09T04:49:36.088Z,27.13
2018-10-09T04:52:15.974Z,26.97
2018-10-09T04:54:49.597Z,27.30
2018-10-09T04:57:29.524Z,27.10
2018-10-09T05:00:03.094Z,26.50
2018-10-09T05:02:43.014Z,25.30
2018-10-09T05:05:16.663Z,25.07
2018-10-09T05:07:50.117Z,24.80
2018-10-09T05:10:29.844Z,26.90
2018-10-09T05:13:03.505Z,24.90
2018-10-09T05:15:37.121Z,27.80
2018-10-09T05:18:10.764Z,26.03
2018-10-09T05:20:50.764Z,28.73
2018-10-09T05:23:24.244Z,28.50
2018-10-09T05:26:04.262Z,28.23
2018-10-09T05:28:38.775Z,29.07
2018-10-09T05:31:12.500Z,29.77
2018-10-09T05:33:46.252Z,27.70
2018-10-09T05:36:19.971Z,29.37
2018-10-09T05:38:53.622Z,29.10
2018-10-09T05:41:28.139Z,32.50
2018-10-09T05:44:01.807Z,30.53
2018-10-09T05:46:35.595Z,30.10
2018-10-09T05:49:15.670Z,31.87
2018-10-09T05:51:50.237Z,30.90
2018-10-09T05:54:30.293Z,28.50
2018-10-09T05:57:05.743Z,30.10
2018-10-09T05:59:40.166Z,29.77
2018-10-09T06:02:13.779Z,31.90
2018-10-09T06:04:47.229Z,28.47
2018-10-09T06:07:21.671Z,30.13
2018-10-09T06:09:55.419Z,30.40
2018-10-09T06:12:29.028Z,31.67
2018-10-09T06:15:02.689Z,30.87
2018-10-09T06:17:36.286Z,30.53
2018-10-09T06:20:16.070Z,31.20
2018-10-09T06:22:49.924Z,31.17
2018-10-09T06:25:23.641Z,30.00
2018-10-09T06:27:57.215Z,29.07
2018-10-09T06:30:37.217Z,28.50
2018-10-09T06:33:10.752Z,28.53
2018-10-09T06:35:44.374Z,33.03
2018-10-09T06:38:17.941Z,30.87
2018-10-09T06:40:51.611Z,31.87
2018-10-09T06:43:31.569Z,32.27
2018-10-09T06:46:05.107Z,27.97
2018-10-09T06:48:38.556Z,28.07
2018-10-09T06:51:12.120Z,28.53
2018-10-09T06:53:45.958Z,28.53
2018-10-09T06:56:19.341Z,28.97
2018-10-09T06:58:52.927Z,28.67
2018-10-09T07:01:26.483Z,26.37
2018-10-09T07:04:06.466Z,24.97
2018-10-09T07:06:46.727Z,26.50
2018-10-09T07:09:20.063Z,24.23
2018-10-09T07:11:53.552Z,24.47
2018-10-09T07:14:27.345Z,26.30
2018-10-09T07:17:01.048Z,24.27
2018-10-09T07:19:35.430Z,25.00
2018-10-09T07:22:09.018Z,24.00
2018-10-09T07:24:48.902Z,23.50
2018-10-09T07:27:22.600Z,23.00
2018-10-09T07:29:58.178Z,23.40
2018-10-09T07:32:32.762Z,24.53
2018-10-09T07:35:06.973Z,23.20
2018-10-09T07:37:40.448Z,23.53
2018-10-09T07:40:14.155Z,24.00
2018-10-09T07:42:47.694Z,22.53
2018-10-09T07:45:22.289Z,22.63
2018-10-09T07:47:56.750Z,21.93
2018-10-09T07:50:30.454Z,20.17
2018-10-09T07:53:10.264Z,19.60
2018-10-09T07:55:50.210Z,19.17
2018-10-09T07:58:24.038Z,18.90
2018-10-09T08:00:58.436Z,17.97
2018-10-09T08:03:31.987Z,17.63
2018-10-09T08:06:05.592Z,17.47
2018-10-09T08:08:45.678Z,18.37
2018-10-09T08:11:19.262Z,18.70
2018-10-09T08:13:59.275Z,16.80
2018-10-09T08:16:39.241Z,17.70
2018-10-09T08:19:12.931Z,16.73
2018-10-09T08:21:46.629Z,17.40
2018-10-09T08:24:20.452Z,16.27
2018-10-09T08:26:54.073Z,16.43
2018-10-09T08:29:27.646Z,16.30
2018-10-09T08:32:01.285Z,16.77
2018-10-09T08:34:41.820Z,16.33
2018-10-09T08:37:21.662Z,16.23
2018-10-09T08:39:55.205Z,15.87
2018-10-09T08:42:29.633Z,16.63
2018-10-09T08:45:09.594Z,15.30
2018-10-09T08:47:43.174Z,15.60
2018-10-09T08:50:17.674Z,15.67
2018-10-09T08:52:51.143Z,14.83
2018-10-09T08:55:24.785Z,15.37
2018-10-09T08:57:59.396Z,14.60
2018-10-09T09:00:33.049Z,14.23
2018-10-09T09:03:06.811Z,14.23
2018-10-09T09:05:46.837Z,13.93
2018-10-09T09:08:20.363Z,14.20
2018-10-09T09:10:53.907Z,12.47
2018-10-09T09:13:33.671Z,13.00
2018-10-09T09:16:07.716Z,13.20
2018-10-09T09:18:41.478Z,13.43
2018-10-09T09:21:15.203Z,11.40
2018-10-09T09:23:54.952Z,11.77
2018-10-09T09:26:28.798Z,11.33
2018-10-09T09:29:02.439Z,10.73
2018-10-09T09:31:36.018Z,11.77
2018-10-09T09:34:15.870Z,12.33
2018-10-09T09:36:49.335Z,11.50
2018-10-09T09:39:22.957Z,11.33
2018-10-09T09:42:02.866Z,11.87
2018-10-09T09:44:42.754Z,11.83
2018-10-09T09:47:22.689Z,11.67
2018-10-09T09:50:03.472Z,10.30
2018-10-09T09:52:43.375Z,10.33
2018-10-09T09:55:23.627Z,10.17
2018-10-09T09:57:57.380Z,10.65
2018-10-09T10:00:36.603Z,11.37
2018-10-09T10:03:16.760Z,9.73
2018-10-09T10:05:50.261Z,10.67
2018-10-09T10:08:24.820Z,10.63
2018-10-09T10:10:58.475Z,10.93
2018-10-09T10:13:32.251Z,11.37
2018-10-09T10:16:05.869Z,10.20
2018-10-09T10:18:39.650Z,9.90
2018-10-09T10:21:13.114Z,9.93
2018-10-09T10:23:46.927Z,9.53
2018-10-09T10:26:20.866Z,9.70
2018-10-09T10:28:54.432Z,8.70
2018-10-09T10:31:33.273Z,9.03
2018-10-09T10:34:06.945Z,9.53
2018-10-09T10:36:40.472Z,9.63
2018-10-09T10:39:20.477Z,10.28
2018-10-09T10:41:54.080Z,9.70
2018-10-09T10:44:27.698Z,8.83
2018-10-09T10:47:01.173Z,9.57
2018-10-09T10:49:34.723Z,8.90
2018-10-09T10:52:14.528Z,10.17
2018-10-09T10:54:49.289Z,9.20
2018-10-09T10:57:22.682Z,10.10
2018-10-09T10:59:56.213Z,9.80
2018-10-09T11:02:36.110Z,8.90
2018-10-09T11:05:15.948Z,10.30
2018-10-09T11:07:55.772Z,10.73
2018-10-09T11:10:29.426Z,9.97
2018-10-09T11:13:03.170Z,9.97
2018-10-09T11:15:43.105Z,11.47
2018-10-09T11:18:23.131Z,10.17
2018-10-09T11:20:58.747Z,10.00
2018-10-09T11:23:32.391Z,10.00
2018-10-09T11:26:06.206Z,8.93
2018-10-09T11:28:46.190Z,9.80
2018-10-09T11:31:21.861Z,9.80
2018-10-09T11:33:55.367Z,10.27
2018-10-09T11:36:35.428Z,9.17
2018-10-09T11:39:09.348Z,9.87
2018-10-09T11:41:42.841Z,8.90
2018-10-09T11:44:16.402Z,10.03
2018-10-09T11:46:50.132Z,9.30
2018-10-09T11:49:23.554Z,9.15
2018-10-09T11:51:58.184Z,8.60
2018-10-09T11:54:31.709Z,8.23
2018-10-09T11:57:11.565Z,8.47
2018-10-09T11:59:45.493Z,7.83
2018-10-09T12:02:20.469Z,7.75
2018-10-09T12:04:54.282Z,7.00
2018-10-09T12:07:28.103Z,8.40
2018-10-09T12:10:02.059Z,7.30
2018-10-09T12:12:35.497Z,7.50
2018-10-09T12:15:11.399Z,7.83
2018-10-09T12:17:45.005Z,7.53
2018-10-09T12:20:18.562Z,7.67
2018-10-09T12:22:58.648Z,8.15
2018-10-09T12:25:36.535Z,8.30
2018-10-09T12:28:16.657Z,7.58
2018-10-09T12:30:50.370Z,7.30
2018-10-09T12:33:23.834Z,8.20
2018-10-09T12:35:58.317Z,8.18
2018-10-09T12:38:31.877Z,7.67
2018-10-09T12:41:05.274Z,8.23
2018-10-09T12:43:39.733Z,8.20
2018-10-09T12:46:14.241Z,7.35
2018-10-09T12:48:47.664Z,7.72
2018-10-09T12:51:21.211Z,8.73
2018-10-09T12:53:54.546Z,7.85
2018-10-09T12:56:28.015Z,8.50
2018-10-09T12:59:07.734Z,7.42
2018-10-09T13:01:41.025Z,8.40
2018-10-09T13:04:14.561Z,11.30
2018-10-09T13:06:49.038Z,8.20
2018-10-09T13:09:28.856Z,6.97
2018-10-09T13:12:02.268Z,8.50
2018-10-09T13:14:35.939Z,7.65
2018-10-09T13:17:15.774Z,6.85
2018-10-09T13:19:49.224Z,7.03
2018-10-09T13:22:24.259Z,6.90
2018-10-09T13:24:58.271Z,7.35
2018-10-09T13:27:31.644Z,8.08
2018-10-09T13:30:11.386Z,6.85
2018-10-09T13:32:44.930Z,6.90
2018-10-09T13:35:21.489Z,7.10
2018-10-09T13:37:54.824Z,7.50
2018-10-09T13:40:28.273Z,7.08
2018-10-09T13:43:02.628Z,6.92
2018-10-09T13:45:42.356Z,7.30
2018-10-09T13:48:16.885Z,7.20
2018-10-09T13:50:50.623Z,7.33
2018-10-09T13:53:30.206Z,6.58
2018-10-09T13:56:09.937Z,7.75
2018-10-09T13:58:49.529Z,7.95
2018-10-09T14:01:22.999Z,7.47
2018-10-09T14:03:57.415Z,7.40
2018-10-09T14:06:31.954Z,6.62
2018-10-09T14:09:07.630Z,7.72
2018-10-09T14:11:40.961Z,7.10
2018-10-09T14:14:15.426Z,8.30
2018-10-09T14:16:55.158Z,8.80
2018-10-09T14:19:28.548Z,8.50
2018-10-09T14:22:02.921Z,9.40
2018-10-09T14:24:42.672Z,8.25
2018-10-09T14:27:16.332Z,8.78
2018-10-09T14:29:49.715Z,7.80
2018-10-09T14:32:29.432Z,8.83
2018-10-09T14:35:02.841Z,8.68
2018-10-09T14:37:36.141Z,8.40
2018-10-09T14:40:09.462Z,7.87
2018-10-09T14:42:42.884Z,8.28
2018-10-09T14:45:16.290Z,8.00
2018-10-09T14:47:49.825Z,8.75
2018-10-09T14:50:23.099Z,9.63
2018-10-09T14:53:02.935Z,8.95
2018-10-09T14:55:37.291Z,8.85
2018-10-09T14:58:10.902Z,7.55
2018-10-09T15:00:44.254Z,9.60
2018-10-09T15:03:17.892Z,7.40
2018-10-09T15:05:57.735Z,10.28
2018-10-09T15:08:37.549Z,11.12
2018-10-09T15:11:10.886Z,9.08
2018-10-09T15:13:44.325Z,9.80
2018-10-09T15:16:17.835Z,11.18
2018-10-09T15:18:51.345Z,11.10
2018-10-09T15:21:25.799Z,10.75
2018-10-09T15:23:59.155Z,9.85
2018-10-09T15:26:32.829Z,10.75
2018-10-09T15:29:06.154Z,9.50
2018-10-09T15:31:39.581Z,8.78
2018-10-09T15:34:13.028Z,8.53
2018-10-09T15:36:52.926Z,7.80
2018-10-09T15:39:26.438Z,8.13
2018-10-09T15:41:59.865Z,8.53
2018-10-09T15:44:33.399Z,7.53
2018-10-09T15:47:13.335Z,7.08
2018-10-09T15:49:47.852Z,7.47
2018-10-09T15:52:27.703Z,8.13
2018-10-09T15:55:02.104Z,8.43
2018-10-09T15:57:41.891Z,9.10
2018-10-09T16:00:15.202Z,9.40
2018-10-09T16:02:48.689Z,10.20
2018-10-09T16:05:22.111Z,9.70
2018-10-09T16:07:55.662Z,9.60
2018-10-09T16:10:35.601Z,9.47
2018-10-09T16:13:09.026Z,10.23
2018-10-09T16:15:48.754Z,10.37
2018-10-09T16:18:28.522Z,10.83
2018-10-09T16:21:02.891Z,10.07
2018-10-09T16:23:36.391Z,10.95
2018-10-09T16:26:12.999Z,10.43
2018-10-09T16:28:46.593Z,10.07
2018-10-09T16:31:20.072Z,10.00
2018-10-09T16:33:54.388Z,10.80
2018-10-09T16:36:34.284Z,10.50
2018-10-09T16:39:09.366Z,9.93
2018-10-09T16:41:48.956Z,10.33
2018-10-09T16:44:22.367Z,10.00
2018-10-09T16:46:55.940Z,9.80
2018-10-09T16:49:29.385Z,9.37
2018-10-09T16:52:03.599Z,9.07
2018-10-09T16:54:39.074Z,8.57
2018-10-09T16:57:12.456Z,8.47
2018-10-09T16:59:45.862Z,8.10
2018-10-09T17:02:25.639Z,8.23
2018-10-09T17:05:05.506Z,8.43
2018-10-09T17:07:38.949Z,8.80
2018-10-09T17:10:12.376Z,7.90
2018-10-09T17:12:46.942Z,8.87
2018-10-09T17:15:26.680Z,10.23
2018-10-09T17:18:06.314Z,9.80
2018-10-09T17:20:39.729Z,11.57
2018-10-09T17:23:13.598Z,12.20
2018-10-09T17:25:47.243Z,14.90
2018-10-09T17:28:27.058Z,16.13
2018-10-09T17:31:02.486Z,14.10
2018-10-09T17:33:42.278Z,12.17
2018-10-09T17:36:22.224Z,11.23
2018-10-09T17:38:55.522Z,12.63
2018-10-09T17:41:28.977Z,11.67
2018-10-09T17:44:08.834Z,11.07
2018-10-09T17:46:48.715Z,12.03
2018-10-09T17:49:28.404Z,11.00
2018-10-09T17:52:01.938Z,11.50
2018-10-09T17:54:41.548Z,11.13
2018-10-09T17:57:14.944Z,13.47
2018-10-09T17:59:48.633Z,11.03
2018-10-09T18:02:22.149Z,11.40
2018-10-09T18:05:01.926Z,11.03
2018-10-09T18:07:36.470Z,11.30
2018-10-09T18:10:16.392Z,11.50
2018-10-09T18:12:56.656Z,10.47
2018-10-09T18:15:31.472Z,11.67
2018-10-09T18:18:11.133Z,12.87
2018-10-09T18:20:44.610Z,12.20
2018-10-09T18:23:18.434Z,11.53
2018-10-09T18:25:52.808Z,12.17
2018-10-09T18:28:32.519Z,11.37
2018-10-09T18:31:07.155Z,11.40
2018-10-09T18:33:46.904Z,11.73
2018-10-09T18:36:26.743Z,11.77
2018-10-09T18:39:09.168Z,11.30
2018-10-09T18:41:43.185Z,10.83
2018-10-09T18:44:22.832Z,12.00
2018-10-09T18:46:57.208Z,11.17
2018-10-09T18:49:37.036Z,11.93
2018-10-09T18:52:10.558Z,11.43
2018-10-09T18:54:44.074Z,11.00
2018-10-09T18:57:23.912Z,11.83
2018-10-09T18:59:57.455Z,11.50
2018-10-09T19:02:30.983Z,12.10
2018-10-09T19:05:04.547Z,11.70
2018-10-09T19:07:38.429Z,12.23
2018-10-09T19:10:18.140Z,13.33
2018-10-09T19:12:57.808Z,12.67
2018-10-09T19:15:37.755Z,13.33
2018-10-09T19:18:11.361Z,13.33
2018-10-09T19:20:44.755Z,12.17
2018-10-09T19:23:18.340Z,12.20
2018-10-09T19:25:51.811Z,12.30
2018-10-09T19:28:26.296Z,13.47
2018-10-09T19:30:59.669Z,12.70
2018-10-09T19:33:39.618Z,12.80
2018-10-09T19:36:13.077Z,12.40
2018-10-09T19:38:46.641Z,13.83
2018-10-09T19:41:20.997Z,14.17
2018-10-09T19:44:00.877Z,13.30
2018-10-09T19:46:34.322Z,13.47
2018-10-09T19:49:08.019Z,13.00
2018-10-09T19:51:47.993Z,13.93
2018-10-09T19:54:27.833Z,14.33
2018-10-09T19:57:07.757Z,14.90
2018-10-09T19:59:47.433Z,13.73
2018-10-09T20:02:21.966Z,15.80
2018-10-09T20:04:55.345Z,16.27
2018-10-09T20:07:28.788Z,16.20
2018-10-09T20:10:02.277Z,15.00
2018-10-09T20:12:35.604Z,16.07
2018-10-09T20:15:09.045Z,17.47
2018-10-09T20:17:42.534Z,15.80
2018-10-09T20:20:15.896Z,17.23
2018-10-09T20:22:49.490Z,16.47
2018-10-09T20:25:29.258Z,17.27
2018-10-09T20:28:03.657Z,17.27
2018-10-09T20:30:36.955Z,16.80
2018-10-09T20:33:10.559Z,19.47
2018-10-09T20:35:44.016Z,19.60
2018-10-09T20:38:17.462Z,24.20
2018-10-09T20:40:50.904Z,21.10
2018-10-09T20:43:24.313Z,21.73
2018-10-09T20:45:57.678Z,20.50
2018-10-09T20:48:31.120Z,19.70
2018-10-09T20:51:05.651Z,19.23
2018-10-09T20:53:40.428Z,19.93
2018-10-09T20:56:20.326Z,18.97
2018-10-09T20:59:00.042Z,19.93
2018-10-09T21:01:33.448Z,20.50
2018-10-09T21:04:07.047Z,20.03
2018-10-09T21:06:41.378Z,20.00
2018-10-09T21:09:21.236Z,19.70
2018-10-09T21:11:54.648Z,21.00
2018-10-09T21:14:34.245Z,21.10
2018-10-09T21:17:07.726Z,22.03
2018-10-09T21:19:41.237Z,21.63
2018-10-09T21:22:14.595Z,21.13
2018-10-09T21:24:48.084Z,20.73
2018-10-09T21:27:21.439Z,21.67
2018-10-09T21:29:54.906Z,21.13
2018-10-09T21:32:34.657Z,22.13
2018-10-09T21:35:08.133Z,21.90
2018-10-09T21:37:41.597Z,21.50
2018-10-09T21:40:15.965Z,21.37
2018-10-09T21:42:49.422Z,22.43
2018-10-09T21:45:22.868Z,22.03
2018-10-09T21:48:02.258Z,21.97
2018-10-09T21:50:42.012Z,20.60
2018-10-09T21:53:18.485Z,21.30
2018-10-09T21:55:51.841Z,21.30
2018-10-09T21:58:26.237Z,22.07
2018-10-09T22:01:05.299Z,22.23
2018-10-09T22:03:39.053Z,21.40
2018-10-09T22:06:15.422Z,21.17
2018-10-09T22:08:48.937Z,21.00
2018-10-09T22:11:22.370Z,23.57
2018-10-09T22:13:55.957Z,24.50
2018-10-09T22:16:29.356Z,22.43
2018-10-09T22:19:02.837Z,21.97
2018-10-09T22:21:36.269Z,22.17
2018-10-09T22:24:09.629Z,22.97
2018-10-09T22:26:43.212Z,21.90
2018-10-09T22:29:23.034Z,22.23
2018-10-09T22:31:56.411Z,22.30
2018-10-09T22:34:29.713Z,21.93
2018-10-09T22:37:03.093Z,21.53
2018-10-09T22:39:37.595Z,23.77
2018-10-09T22:42:11.172Z,24.83
2018-10-09T22:44:51.119Z,23.37
2018-10-09T22:47:24.530Z,22.83
2018-10-09T22:49:58.105Z,22.60
2018-10-09T22:52:31.539Z,22.70
2018-10-09T22:55:05.698Z,22.57
2018-10-09T22:57:38.923Z,21.80
2018-10-09T23:00:12.297Z,22.93
2018-10-09T23:02:45.765Z,22.57
2018-10-09T23:05:25.597Z,22.03
2018-10-09T23:07:58.944Z,22.73
2018-10-09T23:10:32.289Z,23.67
2018-10-09T23:13:05.727Z,23.57
2018-10-09T23:15:45.461Z,23.03
2018-10-09T23:18:18.866Z,22.57
2018-10-09T23:20:52.241Z,22.97
2018-10-09T23:23:25.666Z,23.93
2018-10-09T23:25:59.034Z,22.73
2018-10-09T23:28:33.335Z,24.10
2018-10-09T23:31:06.825Z,23.07
2018-10-09T23:33:41.111Z,23.77
2018-10-09T23:36:15.442Z,24.07
2018-10-09T23:38:49.105Z,22.00
2018-10-09T23:41:22.616Z,23.53
2018-10-09T23:43:56.133Z,24.33
2018-10-09T23:46:30.481Z,25.93
2018-10-09T23:49:10.278Z,24.80
2018-10-09T23:51:43.622Z,25.30
2018-10-09T23:54:16.963Z,26.17
2018-10-09T23:56:56.633Z,27.00
2018-10-09T23:59:29.917Z,26.43
